Time;durP1;ratioP1;P1;durP2;ratioP2;P2;SDS_P1;SDS_P2;PMS_P1;PMS_P2;Temp;Humidity;BMP_temperature;BMP_pressure;BME280_temperature;BME280_humidity;BME280_pressure;Samples;Min_cycle;Max_cycle;Signal;HPM_P1;HPM_P2
2023/06/30 00:00:12;;;;;;;7.30;2.50;;;;;;;19.05;91.27;101384.19;6496495;23;20008;-76
2023/06/30 00:02:46;;;;;;;7.20;2.37;;;;;;;19.12;89.56;101381.88;6497442;23;20090;-76
2023/06/30 00:05:18;;;;;;;8.73;2.45;;;;;;;18.99;89.85;101374.97;6497986;23;20425;-76
2023/06/30 00:07:49;;;;;;;7.63;2.23;;;;;;;19.15;88.78;101374.47;6497457;23;20004;-76
2023/06/30 00:10:22;;;;;;;9.03;2.53;;;;;;;18.83;89.86;101359.56;6497343;23;20001;-76
2023/06/30 00:12:53;;;;;;;8.60;3.40;;;;;;;19.11;87.68;101375.75;6497408;23;20012;-77
2023/06/30 00:15:24;;;;;;;8.50;2.67;;;;;;;19.04;87.85;101382.53;6496158;23;20329;-76
2023/06/30 00:17:56;;;;;;;10.20;2.80;;;;;;;19.04;88.61;101383.34;6495823;23;20000;-76
2023/06/30 00:20:27;;;;;;;12.07;2.83;;;;;;;18.59;91.95;101380.09;6495813;23;20023;-77
2023/06/30 00:22:59;;;;;;;9.80;2.57;;;;;;;18.57;90.78;101360.84;6497371;23;20079;-76
2023/06/30 00:25:30;;;;;;;9.10;2.67;;;;;;;18.85;88.62;101366.41;6497530;23;20420;-76
2023/06/30 00:28:01;;;;;;;6.63;2.03;;;;;;;18.69;89.51;101364.25;6497511;23;20011;-76
2023/06/30 00:30:32;;;;;;;7.13;2.10;;;;;;;18.92;87.73;101368.53;6494557;23;20035;-76
2023/06/30 00:33:04;;;;;;;8.87;2.90;;;;;;;18.71;89.74;101366.78;6497574;23;20007;-76
2023/06/30 00:35:35;;;;;;;11.77;2.80;;;;;;;18.66;89.10;101361.84;6496686;23;20004;-76
2023/06/30 00:38:06;;;;;;;6.20;2.67;;;;;;;18.68;88.57;101351.94;6497111;23;20014;-76
2023/06/30 00:40:38;;;;;;;10.47;3.63;;;;;;;18.62;89.43;101357.81;6470552;23;20010;-77
2023/06/30 00:43:09;;;;;;;9.13;2.30;;;;;;;18.28;91.21;101350.91;6496016;23;20449;-77
2023/06/30 00:45:40;;;;;;;9.80;2.60;;;;;;;18.58;89.20;101353.72;6496498;23;20000;-76
2023/06/30 00:48:12;;;;;;;9.63;2.30;;;;;;;18.37;90.79;101358.09;6497101;23;20023;-75
2023/06/30 00:50:43;;;;;;;9.33;2.67;;;;;;;18.70;88.12;101354.47;6470015;23;20008;-76
2023/06/30 00:53:15;;;;;;;9.17;2.53;;;;;;;18.58;89.11;101367.84;6497263;23;20007;-76
2023/06/30 00:55:47;;;;;;;9.70;2.10;;;;;;;18.57;88.46;101355.53;6495146;23;20003;-76
2023/06/30 00:58:18;;;;;;;8.73;2.30;;;;;;;18.53;88.91;101356.78;6496125;23;20421;-75
2023/06/30 01:00:55;;;;;;;9.00;2.57;;;;;;;18.40;89.91;101364.13;6496679;23;20079;-76
2023/06/30 01:03:41;;;;;;;11.17;3.83;;;;;;;18.65;88.14;101362.84;6518181;22;20039;-76
2023/06/30 01:06:22;;;;;;;9.50;2.57;;;;;;;18.50;89.27;101371.13;6496465;22;20479;-76
2023/06/30 01:09:02;;;;;;;9.50;2.73;;;;;;;18.16;92.62;101357.25;6496819;22;20036;-76
2023/06/30 01:11:34;;;;;;;8.93;2.67;;;;;;;18.32;90.64;101364.75;6496358;22;20008;-76
2023/06/30 01:14:07;;;;;;;8.93;3.00;;;;;;;18.42;90.24;101362.16;6495943;22;20007;-76
2023/06/30 01:16:40;;;;;;;10.77;2.80;;;;;;;18.36;89.75;101353.75;6495938;22;20674;-76
2023/06/30 01:19:30;;;;;;;11.13;3.40;;;;;;;18.54;88.79;101366.41;6496625;22;20351;-76
2023/06/30 01:22:18;;;;;;;11.40;3.40;;;;;;;18.30;90.53;101364.88;6496468;22;20031;-76
2023/06/30 01:24:56;;;;;;;9.90;2.80;;;;;;;18.29;90.39;101363.22;6494305;23;20050;-76
2023/06/30 01:27:28;;;;;;;10.30;3.23;;;;;;;18.31;89.06;101360.44;6494878;23;20425;-75
2023/06/30 01:30:00;;;;;;;8.73;2.33;;;;;;;18.21;89.96;101373.59;6495447;22;20016;-76
2023/06/30 01:32:32;;;;;;;12.60;3.27;;;;;;;18.13;89.93;101379.53;6496700;22;20026;-76
2023/06/30 01:35:04;;;;;;;10.27;2.70;;;;;;;18.27;89.13;101370.47;6496426;22;20004;-75
2023/06/30 01:37:35;;;;;;;9.13;2.50;;;;;;;18.14;88.45;101355.59;6495773;22;20007;-75
2023/06/30 01:40:07;;;;;;;11.83;2.70;;;;;;;18.01;90.38;101366.31;6497056;22;20110;-75
2023/06/30 01:42:40;;;;;;;8.87;2.50;;;;;;;18.12;89.34;101362.78;6496485;22;20008;-76
2023/06/30 01:45:13;;;;;;;10.07;2.50;;;;;;;17.76;92.86;101356.94;6495563;22;20007;-76
2023/06/30 01:47:44;;;;;;;11.03;2.27;;;;;;;17.82;91.65;101356.44;6496019;22;20364;-76
2023/06/30 01:50:16;;;;;;;7.43;2.40;;;;;;;18.11;88.64;101347.88;6519971;22;20018;-76
2023/06/30 01:52:47;;;;;;;12.40;2.73;;;;;;;18.00;88.67;101343.47;6496178;22;20004;-75
2023/06/30 01:55:19;;;;;;;6.50;2.17;;;;;;;18.06;87.70;101343.91;6496093;22;20031;-76
2023/06/30 01:57:50;;;;;;;9.37;2.73;;;;;;;17.65;89.86;101348.06;6494997;22;20001;-76
2023/06/30 02:00:21;;;;;;;9.53;2.47;;;;;;;17.80;89.22;101339.84;6520140;22;20000;-76
2023/06/30 02:02:53;;;;;;;11.13;3.10;;;;;;;17.83;88.86;101347.53;6494714;23;20012;-76
2023/06/30 02:05:24;;;;;;;8.20;2.90;;;;;;;17.67;89.11;101345.31;6495784;22;20000;-76
2023/06/30 02:07:55;;;;;;;7.77;2.97;;;;;;;17.32;91.37;101335.78;6495990;22;20413;-76
2023/06/30 02:10:26;;;;;;;10.03;2.77;;;;;;;17.40;90.94;101344.78;6519165;22;20012;-75
2023/06/30 02:12:58;;;;;;;10.33;2.90;;;;;;;17.66;89.33;101346.28;6494192;23;20000;-75
2023/06/30 02:15:29;;;;;;;9.27;2.90;;;;;;;17.59;89.91;101350.41;6494108;23;20000;-75
2023/06/30 02:18:00;;;;;;;7.77;2.40;;;;;;;17.48;90.00;101348.63;6495617;22;20004;-76
2023/06/30 02:20:32;;;;;;;9.80;2.80;;;;;;;17.50;89.81;101342.25;6495882;22;20079;-76
2023/06/30 02:23:03;;;;;;;6.90;2.43;;;;;;;17.62;89.33;101350.97;6495581;22;20081;-76
2023/06/30 02:25:35;;;;;;;8.33;2.77;;;;;;;17.40;89.90;101338.66;6495790;22;20027;-75
2023/06/30 02:28:06;;;;;;;9.30;2.30;;;;;;;17.55;89.28;101355.09;6494601;22;20058;-76
2023/06/30 02:30:38;;;;;;;7.80;2.43;;;;;;;17.45;89.96;101348.88;6495068;23;20031;-76
2023/06/30 02:33:09;;;;;;;13.60;3.33;;;;;;;17.41;89.60;101353.56;6494357;23;20008;-76
2023/06/30 02:35:41;;;;;;;9.80;2.80;;;;;;;17.04;92.56;101354.69;6495442;23;20015;-75
2023/06/30 02:38:13;;;;;;;12.50;3.30;;;;;;;17.35;90.81;101359.38;6495898;22;20010;-75
2023/06/30 02:40:45;;;;;;;9.37;2.80;;;;;;;16.88;93.57;101363.84;6495693;22;20380;-75
2023/06/30 02:43:16;;;;;;;11.83;3.17;;;;;;;17.11;91.76;101353.28;6495160;22;20038;-75
2023/06/30 02:45:47;;;;;;;8.70;2.43;;;;;;;17.17;91.98;101373.13;6494665;23;20008;-77
2023/06/30 02:48:19;;;;;;;8.93;2.60;;;;;;;17.05;92.16;101369.63;6495439;22;20039;-74
2023/06/30 02:50:50;;;;;;;9.17;2.77;;;;;;;17.12;91.91;101372.66;6495137;23;20004;-74
2023/06/30 02:53:21;;;;;;;11.40;3.30;;;;;;;16.99;93.16;101378.03;6495551;22;20004;-74
2023/06/30 02:55:52;;;;;;;9.17;3.13;;;;;;;16.77;94.64;101366.50;6495820;23;20070;-75
2023/06/30 02:58:24;;;;;;;8.53;3.80;;;;;;;16.74;94.66;101374.69;6494149;22;20444;-74
2023/06/30 03:00:56;;;;;;;8.73;2.97;;;;;;;16.68;95.91;101384.78;6495490;23;20075;-74
2023/06/30 03:03:27;;;;;;;8.43;2.93;;;;;;;16.62;96.62;101385.25;6494892;22;20012;-74
2023/06/30 03:05:59;;;;;;;9.33;2.73;;;;;;;16.59;97.10;101387.28;6495994;23;20005;-75
2023/06/30 03:08:30;;;;;;;14.00;3.40;;;;;;;16.71;96.18;101374.91;6494808;23;20015;-74
2023/06/30 03:11:01;;;;;;;10.30;3.30;;;;;;;16.60;97.13;101376.56;6495448;23;20054;-74
2023/06/30 03:13:33;;;;;;;10.33;3.40;;;;;;;16.72;96.44;101379.25;6467469;23;20420;-74
2023/06/30 03:16:05;;;;;;;9.97;3.03;;;;;;;16.67;97.10;101376.94;6495395;23;20054;-74
2023/06/30 03:18:36;;;;;;;9.33;3.50;;;;;;;16.41;98.43;101366.56;6494931;23;20524;-74
2023/06/30 03:21:07;;;;;;;11.67;3.87;;;;;;;16.66;96.65;101364.69;6495298;23;20058;-74
2023/06/30 03:23:40;;;;;;;11.27;4.47;;;;;;;16.54;97.62;101361.19;6494924;23;20000;-74
2023/06/30 03:26:13;;;;;;;11.33;3.33;;;;;;;16.40;98.77;101363.09;6494021;23;20425;-75
2023/06/30 03:28:44;;;;;;;10.07;3.67;;;;;;;16.43;97.74;101359.38;6493675;23;20417;-75
2023/06/30 03:31:16;;;;;;;7.87;3.70;;;;;;;16.46;99.04;101364.41;6495657;23;20011;-74
2023/06/30 03:33:47;;;;;;;11.17;4.53;;;;;;;16.51;98.01;101358.81;6495056;23;20426;-74
2023/06/30 03:36:18;;;;;;;11.20;3.80;;;;;;;16.28;98.59;101353.47;6495362;23;20432;-75
2023/06/30 03:38:50;;;;;;;12.33;3.77;;;;;;;16.48;98.15;101361.69;6468308;23;20091;-75
2023/06/30 03:41:21;;;;;;;9.07;4.23;;;;;;;16.38;98.48;101354.44;6495813;23;20011;-75
2023/06/30 03:43:52;;;;;;;10.73;4.13;;;;;;;16.51;97.31;101350.88;6494601;23;20444;-75
2023/06/30 03:46:25;;;;;;;8.47;3.50;;;;;;;16.40;98.33;101355.19;6493702;23;20050;-75
2023/06/30 03:48:56;;;;;;;9.87;4.13;;;;;;;16.38;98.35;101354.44;6467947;23;20015;-74
2023/06/30 03:51:27;;;;;;;12.87;3.97;;;;;;;16.33;99.27;101362.75;6495280;23;20004;-75
2023/06/30 03:53:58;;;;;;;9.97;3.47;;;;;;;16.15;99.66;101351.75;6494168;23;19988;-75
2023/06/30 03:56:30;;;;;;;10.80;3.63;;;;;;;16.12;100.00;101352.00;6493572;23;20007;-75
2023/06/30 03:59:01;;;;;;;9.97;3.47;;;;;;;16.12;100.00;101353.78;6494345;23;20024;-74
2023/06/30 04:01:33;;;;;;;10.87;3.43;;;;;;;15.94;100.00;101352.38;6495198;23;20031;-74
2023/06/30 04:04:05;;;;;;;7.30;3.13;;;;;;;15.88;100.00;101355.50;6495755;23;20062;-75
2023/06/30 04:06:36;;;;;;;13.33;3.70;;;;;;;16.18;100.00;101356.81;6494480;23;20000;-75
2023/06/30 04:09:07;;;;;;;9.33;3.53;;;;;;;15.84;100.00;101348.75;6493813;23;20038;-75
2023/06/30 04:11:39;;;;;;;10.50;4.20;;;;;;;16.19;100.00;101363.78;6468620;23;20004;-75
2023/06/30 04:14:10;;;;;;;10.50;3.97;;;;;;;15.93;100.00;101355.16;6467296;23;20004;-75
2023/06/30 04:16:41;;;;;;;10.37;3.97;;;;;;;15.86;100.00;101352.13;6493780;23;20666;-75
2023/06/30 04:19:13;;;;;;;9.93;4.17;;;;;;;16.17;100.00;101360.41;6495702;23;20004;-73
2023/06/30 04:21:44;;;;;;;11.63;3.67;;;;;;;16.01;100.00;101354.59;6492988;23;20008;-75
2023/06/30 04:24:15;;;;;;;10.27;3.80;;;;;;;16.23;100.00;101366.19;6495265;23;20001;-75
2023/06/30 04:26:47;;;;;;;12.93;4.53;;;;;;;16.11;100.00;101371.44;6495412;23;20011;-75
2023/06/30 04:29:18;;;;;;;11.03;4.20;;;;;;;15.91;100.00;101367.63;6494439;23;20004;-75
2023/06/30 04:31:50;;;;;;;8.07;3.40;;;;;;;16.03;100.00;101352.69;6495141;23;20388;-74
2023/06/30 04:34:21;;;;;;;8.93;3.70;;;;;;;15.87;100.00;101351.16;6495434;23;20071;-75
2023/06/30 04:36:53;;;;;;;7.90;3.60;;;;;;;16.01;100.00;101366.00;6494901;23;20088;-74
2023/06/30 04:39:24;;;;;;;8.03;3.53;;;;;;;16.27;99.01;101359.69;6470225;23;20087;-74
2023/06/30 04:41:55;;;;;;;8.77;3.57;;;;;;;16.07;100.00;101352.34;6497017;23;20004;-75
2023/06/30 04:44:27;;;;;;;11.13;4.10;;;;;;;16.18;99.25;101351.53;6493299;23;20448;-75
2023/06/30 04:46:58;;;;;;;9.17;3.57;;;;;;;16.23;98.55;101359.13;6497540;23;20000;-75
2023/06/30 04:49:29;;;;;;;10.63;3.77;;;;;;;16.18;98.83;101355.97;6495949;23;20005;-75
2023/06/30 04:52:01;;;;;;;8.43;3.87;;;;;;;16.03;100.00;101358.81;6496856;23;20456;-75
2023/06/30 04:54:32;;;;;;;13.93;4.10;;;;;;;16.14;98.78;101358.00;6495466;23;20023;-74
2023/06/30 04:57:05;;;;;;;11.83;4.70;;;;;;;15.93;100.00;101361.28;6497429;23;20063;-75
2023/06/30 04:59:36;;;;;;;7.47;4.20;;;;;;;16.26;98.76;101363.31;6496254;23;20071;-75
2023/06/30 05:02:08;;;;;;;13.07;4.07;;;;;;;15.99;100.00;101361.78;6477014;23;20016;-77
2023/06/30 05:04:39;;;;;;;12.07;3.60;;;;;;;16.17;99.25;101363.06;6497177;23;20004;-75
2023/06/30 05:07:10;;;;;;;6.73;3.80;;;;;;;16.15;100.00;101359.69;6497793;23;20007;-75
2023/06/30 05:09:42;;;;;;;10.77;3.83;;;;;;;16.29;98.26;101363.91;6520493;22;20008;-77
2023/06/30 05:12:14;;;;;;;6.77;3.50;;;;;;;16.20;98.81;101354.88;6497973;22;20008;-75
2023/06/30 05:14:46;;;;;;;11.70;4.27;;;;;;;16.11;100.00;101358.22;6495698;22;20780;-75
2023/06/30 05:17:17;;;;;;;11.40;3.80;;;;;;;16.23;99.76;101360.91;6497745;22;20043;-75
2023/06/30 05:19:48;;;;;;;9.97;4.73;;;;;;;16.28;98.26;101361.41;6496611;22;20004;-75
2023/06/30 05:22:20;;;;;;;8.87;3.70;;;;;;;16.31;97.47;101355.88;6497333;23;20000;-75
2023/06/30 05:24:51;;;;;;;15.53;3.63;;;;;;;16.42;95.54;101361.16;6496973;22;20004;-75
2023/06/30 05:27:23;;;;;;;15.43;4.10;;;;;;;16.45;95.70;101360.09;6496104;23;20082;-76
2023/06/30 05:29:54;;;;;;;9.53;4.00;;;;;;;16.30;99.13;101359.50;6496436;23;20008;-75
2023/06/30 05:32:25;;;;;;;8.17;3.57;;;;;;;16.40;96.66;101357.81;6497383;22;20000;-75
2023/06/30 05:34:56;;;;;;;9.13;4.27;;;;;;;16.33;99.36;101359.25;6519873;22;20034;-75
2023/06/30 05:37:28;;;;;;;10.40;3.83;;;;;;;16.44;97.42;101359.25;6496432;23;20313;-75
2023/06/30 05:39:59;;;;;;;7.63;3.63;;;;;;;16.51;96.12;101356.16;6520949;22;20031;-75
2023/06/30 05:42:30;;;;;;;9.47;3.07;;;;;;;16.44;96.48;101343.38;6495569;22;20011;-75
2023/06/30 05:45:02;;;;;;;8.07;3.50;;;;;;;16.61;95.48;101359.75;6495927;22;20014;-75
2023/06/30 05:47:33;;;;;;;7.67;3.17;;;;;;;16.59;94.56;101363.47;6496352;22;20012;-75
2023/06/30 05:50:05;;;;;;;8.27;3.20;;;;;;;16.62;94.14;101364.09;6495974;23;20041;-75
2023/06/30 05:52:36;;;;;;;8.53;3.43;;;;;;;16.59;96.68;101359.03;6496553;22;20004;-76
2023/06/30 05:55:08;;;;;;;8.17;3.40;;;;;;;16.68;93.67;101358.34;6496609;22;20007;-75
2023/06/30 05:57:39;;;;;;;9.70;3.23;;;;;;;16.65;95.71;101371.78;6495038;22;20556;-75
2023/06/30 06:00:11;;;;;;;8.80;3.17;;;;;;;16.57;95.88;101359.16;6497039;22;20008;-76
2023/06/30 06:02:43;;;;;;;8.27;3.83;;;;;;;16.71;94.95;101367.81;6495673;22;20008;-75
2023/06/30 06:05:14;;;;;;;9.50;3.87;;;;;;;16.63;96.87;101363.13;6496570;23;20027;-75
2023/06/30 06:07:45;;;;;;;9.73;4.20;;;;;;;16.80;93.08;101361.81;6496763;23;20015;-72
2023/06/30 06:10:17;;;;;;;9.80;3.40;;;;;;;16.88;91.84;101358.56;6469822;23;20019;-73
2023/06/30 06:12:50;;;;;;;8.10;3.70;;;;;;;16.88;91.62;101368.28;6495339;23;19996;-72
2023/06/30 06:15:21;;;;;;;9.00;3.53;;;;;;;16.89;91.90;101352.31;6497266;23;20000;-69
2023/06/30 06:17:53;;;;;;;9.23;3.73;;;;;;;16.97;91.01;101353.50;6496471;23;20031;-72
2023/06/30 06:20:24;;;;;;;8.30;3.53;;;;;;;16.94;92.66;101344.00;6496313;23;20008;-72
2023/06/30 06:22:55;;;;;;;7.50;3.03;;;;;;;17.05;91.58;101348.44;6496465;23;20000;-75
2023/06/30 06:25:27;;;;;;;8.57;3.30;;;;;;;17.14;91.61;101366.25;6494459;23;20004;-75
2023/06/30 06:27:58;;;;;;;12.37;4.00;;;;;;;17.21;92.53;101376.38;6468874;23;20370;-74
2023/06/30 06:30:29;;;;;;;10.67;3.53;;;;;;;17.28;91.73;101369.59;6496379;23;20008;-75
2023/06/30 06:33:01;;;;;;;7.83;3.30;;;;;;;17.29;89.82;101371.28;6496562;23;20015;-76
2023/06/30 06:35:33;;;;;;;10.80;2.93;;;;;;;17.43;88.91;101367.53;6496265;23;20019;-75
2023/06/30 06:38:04;;;;;;;6.57;3.10;;;;;;;17.49;86.66;101376.78;6495592;23;20010;-75
2023/06/30 06:40:36;;;;;;;9.20;2.53;;;;;;;17.57;86.95;101362.91;6468956;23;20009;-75
2023/06/30 06:43:07;;;;;;;8.63;2.83;;;;;;;17.65;86.31;101369.25;6495305;23;20000;-76
2023/06/30 06:45:38;;;;;;;8.47;2.30;;;;;;;17.77;87.56;101375.34;6494110;23;20429;-76
2023/06/30 06:48:22;;;;;;;9.77;1.93;;;;;;;18.04;81.62;101381.16;6490232;23;20004;-75
2023/06/30 06:51:02;;;;;;;8.02;3.10;;;;;;;18.10;81.20;101369.19;6492709;23;20587;-76
2023/06/30 06:53:34;;;;;;;7.13;2.47;;;;;;;18.09;80.48;101363.06;6494169;23;20027;-76
2023/06/30 06:56:05;;;;;;;7.83;2.97;;;;;;;18.33;80.63;101363.78;6494034;23;20008;-75
2023/06/30 06:58:38;;;;;;;3.67;1.70;;;;;;;18.58;76.57;101366.97;6485258;23;20018;-76
2023/06/30 07:01:10;;;;;;;6.23;2.17;;;;;;;18.78;74.09;101367.91;6489380;23;20004;-74
2023/06/30 07:03:41;;;;;;;4.43;2.00;;;;;;;18.88;73.12;101357.34;6490078;23;20004;-76
2023/06/30 07:06:12;;;;;;;7.83;2.50;;;;;;;19.16;67.74;101367.38;6488611;23;20062;-76
2023/06/30 07:08:44;;;;;;;5.50;1.93;;;;;;;19.46;65.19;101355.81;6490840;23;20429;-75
2023/06/30 07:11:15;;;;;;;6.53;1.50;;;;;;;19.75;63.34;101369.25;6490334;23;20015;-75
2023/06/30 07:13:46;;;;;;;7.13;1.70;;;;;;;20.22;60.15;101373.00;6490413;23;20464;-75
2023/06/30 07:16:18;;;;;;;5.37;1.57;;;;;;;20.54;57.91;101377.94;6492393;23;20429;-74
2023/06/30 07:18:49;;;;;;;4.73;1.70;;;;;;;20.76;57.63;101373.25;6491022;23;20114;-75
2023/06/30 07:21:21;;;;;;;6.87;2.70;;;;;;;21.28;55.94;101369.22;6491492;23;20079;-75
2023/06/30 07:23:52;;;;;;;10.07;2.17;;;;;;;21.95;53.66;101371.69;6483260;23;20009;-76
2023/06/30 07:26:23;;;;;;;10.27;2.17;;;;;;;22.28;52.16;101365.75;6490414;23;20373;-75
2023/06/30 07:28:55;;;;;;;4.07;1.40;;;;;;;22.70;49.29;101372.16;6489861;23;20055;-76
2023/06/30 07:31:26;;;;;;;7.40;2.28;;;;;;;23.39;45.77;101367.72;6492360;23;20005;-75
2023/06/30 07:33:57;;;;;;;6.28;1.73;;;;;;;23.95;43.51;101379.63;6495883;23;20391;-76
2023/06/30 07:36:28;;;;;;;4.50;1.65;;;;;;;24.57;41.60;101388.06;6493419;23;20008;-76
2023/06/30 07:39:00;;;;;;;5.72;1.40;;;;;;;24.74;40.65;101373.63;6495867;23;20001;-76
2023/06/30 07:41:34;;;;;;;7.03;1.63;;;;;;;25.03;41.09;101378.53;6495403;23;20000;-75
2023/06/30 07:44:06;;;;;;;6.78;2.05;;;;;;;25.46;40.16;101388.81;6493382;23;20004;-76
2023/06/30 07:46:38;;;;;;;6.55;1.77;;;;;;;25.69;39.58;101380.78;6493594;23;20069;-77
2023/06/30 07:49:09;;;;;;;5.03;1.27;;;;;;;26.14;37.20;101384.59;6495249;23;20004;-76
2023/06/30 07:51:41;;;;;;;3.53;1.10;;;;;;;26.59;36.15;101381.97;6468024;23;20004;-76
2023/06/30 07:54:12;;;;;;;4.78;1.33;;;;;;;27.05;35.65;101386.25;6496292;23;20007;-74
2023/06/30 07:56:45;;;;;;;5.40;1.85;;;;;;;27.37;34.47;101372.53;6493312;23;20023;-72
2023/06/30 07:59:17;;;;;;;5.10;2.08;;;;;;;27.96;34.15;101380.50;6485724;23;20015;-71
2023/06/30 08:01:48;;;;;;;4.00;1.15;;;;;;;28.13;33.23;101382.91;6485877;23;20016;-74
2023/06/30 08:04:21;;;;;;;5.15;1.38;;;;;;;28.59;33.13;101388.81;6486580;23;20004;-74
2023/06/30 08:06:54;;;;;;;4.85;1.30;;;;;;;28.34;31.17;101392.81;6487122;23;20028;-73
2023/06/30 08:09:26;;;;;;;3.22;1.60;;;;;;;28.66;30.68;101389.63;6487605;23;20007;-73
2023/06/30 08:11:57;;;;;;;3.22;0.95;;;;;;;28.75;30.97;101387.59;6483889;23;20317;-73
2023/06/30 08:14:29;;;;;;;5.97;1.73;;;;;;;28.30;32.03;101393.34;6488457;23;19996;-74
2023/06/30 08:17:00;;;;;;;4.25;1.90;;;;;;;28.86;30.76;101388.91;6489326;23;20000;-73
2023/06/30 08:19:31;;;;;;;5.10;1.58;;;;;;;29.29;30.61;101381.59;6485738;23;20016;-72
2023/06/30 08:22:03;;;;;;;6.90;1.92;;;;;;;29.86;29.39;101375.81;6488894;23;20012;-74
2023/06/30 08:24:34;;;;;;;5.00;1.40;;;;;;;29.79;30.53;101388.50;6488306;23;20046;-74
2023/06/30 08:27:06;;;;;;;4.75;1.50;;;;;;;30.04;28.75;101380.56;6487884;23;20057;-70
2023/06/30 08:29:37;;;;;;;8.32;1.75;;;;;;;29.49;30.15;101372.66;6486854;23;20437;-73
2023/06/30 08:32:09;;;;;;;4.90;1.58;;;;;;;30.51;28.52;101378.84;6487402;23;20040;-74
2023/06/30 08:34:40;;;;;;;7.95;1.77;;;;;;;30.08;27.27;101380.97;6458512;23;20012;-75
2023/06/30 08:37:11;;;;;;;7.25;1.50;;;;;;;29.85;28.30;101386.84;6490772;23;20000;-73
2023/06/30 08:39:43;;;;;;;4.55;1.75;;;;;;;29.92;28.83;101372.28;6496775;23;20429;-73
2023/06/30 08:42:17;;;;;;;6.03;1.80;;;;;;;30.84;28.57;101374.34;6495695;23;20046;-73
2023/06/30 08:44:52;;;;;;;5.63;1.70;;;;;;;30.57;28.44;101367.16;6497131;23;20031;-72
2023/06/30 08:47:25;;;;;;;6.05;1.77;;;;;;;30.69;27.34;101375.41;6486187;23;20088;-71
2023/06/30 08:49:57;;;;;;;7.95;1.67;;;;;;;30.09;28.61;101369.16;6488137;23;20015;-73
2023/06/30 08:52:29;;;;;;;6.50;1.80;;;;;;;30.35;28.10;101361.22;6488193;23;20004;-71
2023/06/30 08:55:02;;;;;;;7.43;2.30;;;;;;;30.17;28.09;101360.81;6486233;23;20254;-71
2023/06/30 08:57:34;;;;;;;5.75;1.45;;;;;;;29.87;28.24;101361.28;6487018;23;20753;-70
2023/06/30 09:00:07;;;;;;;4.93;1.58;;;;;;;29.80;28.50;101353.19;6486208;23;20008;-70
2023/06/30 09:02:38;;;;;;;7.22;1.73;;;;;;;29.71;28.91;101357.13;6491282;23;20091;-73
2023/06/30 09:05:10;;;;;;;3.58;1.75;;;;;;;29.26;29.05;101355.00;6493369;23;20034;-75
2023/06/30 09:07:45;;;;;;;8.85;2.25;;;;;;;30.04;28.20;101339.25;6497884;23;20107;-75
2023/06/30 09:10:18;;;;;;;5.15;1.83;;;;;;;29.26;28.32;101347.75;6496566;23;20008;-75
2023/06/30 09:12:54;;;;;;;8.73;1.48;;;;;;;30.14;27.77;101346.91;6494064;23;20000;-75
2023/06/30 09:15:26;;;;;;;4.38;1.52;;;;;;;29.50;28.86;101350.88;6497366;23;20010;-75
2023/06/30 09:17:57;;;;;;;5.72;1.60;;;;;;;30.35;27.60;101329.63;6496685;23;20657;-74
2023/06/30 09:20:28;;;;;;;4.20;1.48;;;;;;;30.91;27.27;101348.13;6470400;23;20008;-74
2023/06/30 09:23:03;;;;;;;4.95;1.70;;;;;;;30.99;26.53;101350.56;6496292;23;20092;-75
2023/06/30 09:25:35;;;;;;;4.47;1.85;;;;;;;30.43;27.85;101342.06;6495742;23;20094;-74
2023/06/30 09:28:10;;;;;;;6.13;1.60;;;;;;;30.65;27.22;101339.88;6493294;23;20437;-75
2023/06/30 09:30:47;;;;;;;9.18;1.98;;;;;;;30.84;28.06;101342.75;6496559;23;20008;-75
2023/06/30 09:33:20;;;;;;;4.80;1.25;;;;;;;30.67;27.20;101342.38;6495780;23;20090;-75
2023/06/30 09:35:51;;;;;;;3.72;1.38;;;;;;;30.34;26.20;101336.06;6495995;23;20418;-75
2023/06/30 09:38:24;;;;;;;4.95;1.55;;;;;;;30.53;26.87;101341.59;6469280;23;20015;-76
2023/06/30 09:40:56;;;;;;;8.45;1.50;;;;;;;30.28;27.38;101345.88;6496058;23;20087;-76
2023/06/30 09:43:27;;;;;;;6.65;1.38;;;;;;;29.89;27.43;101340.31;6494895;23;20042;-75
2023/06/30 09:46:01;;;;;;;5.15;1.10;;;;;;;31.04;25.39;101333.66;6496643;23;20019;-76
2023/06/30 09:48:38;;;;;;;6.10;1.52;;;;;;;30.79;27.04;101329.03;6495229;23;20011;-73
2023/06/30 09:51:10;;;;;;;3.67;1.27;;;;;;;30.79;26.39;101332.53;6494406;23;20004;-73
2023/06/30 09:53:42;;;;;;;4.72;1.80;;;;;;;30.52;26.12;101334.53;6492968;23;20003;-73
2023/06/30 09:56:21;;;;;;;6.00;1.88;;;;;;;30.53;27.50;101325.38;6496419;23;20099;-73
2023/06/30 09:58:59;;;;;;;4.60;1.55;;;;;;;30.77;27.36;101331.09;6495150;23;20071;-73
2023/06/30 10:01:31;;;;;;;6.30;1.98;;;;;;;31.17;26.01;101340.03;6495036;23;20016;-73
2023/06/30 10:04:02;;;;;;;3.28;1.23;;;;;;;30.80;26.11;101336.06;6496412;23;20075;-73
2023/06/30 10:06:36;;;;;;;4.82;1.17;;;;;;;30.90;27.21;101331.06;6495743;23;20430;-73
2023/06/30 10:09:08;;;;;;;;;;;;;;;32.27;27.19;101334.28;6496787;23;20440;-72
2023/06/30 10:11:41;;;;;;;4.03;1.30;;;;;;;31.21;25.78;101325.84;6494397;23;19907;-73
2023/06/30 10:14:13;;;;;;;7.30;2.10;;;;;;;30.99;25.39;101323.50;6495823;23;20062;-73
2023/06/30 10:16:47;;;;;;;4.10;1.90;;;;;;;32.15;25.17;101333.38;6495978;23;20421;-73
2023/06/30 10:19:19;;;;;;;8.23;1.75;;;;;;;31.83;24.64;101321.59;6496674;23;20011;-73
2023/06/30 10:21:50;;;;;;;9.88;1.70;;;;;;;31.15;25.31;101316.75;6496380;23;20004;-72
2023/06/30 10:24:26;;;;;;;5.45;1.85;;;;;;;31.96;25.60;101322.50;6495641;23;20007;-73
2023/06/30 10:26:58;;;;;;;6.10;2.05;;;;;;;31.54;24.41;101315.81;6494712;23;20004;-74
2023/06/30 10:29:30;;;;;;;5.03;1.23;;;;;;;31.71;24.07;101317.97;6495758;23;20012;-74
2023/06/30 10:32:03;;;;;;;4.35;1.30;;;;;;;31.23;25.41;101317.50;6496495;23;20007;-73
2023/06/30 10:34:35;;;;;;;4.80;1.60;;;;;;;31.54;24.39;101313.09;6493385;23;20034;-74
2023/06/30 10:37:07;;;;;;;7.07;1.80;;;;;;;31.33;25.37;101300.78;6496392;23;20026;-75
2023/06/30 10:39:38;;;;;;;6.18;1.67;;;;;;;32.11;24.05;101312.16;6495543;23;20004;-71
2023/06/30 10:42:15;;;;;;;5.50;1.98;;;;;;;32.37;23.63;101314.75;6495090;23;20000;-71
2023/06/30 10:44:50;;;;;;;5.15;1.20;;;;;;;31.59;24.12;101299.75;6495282;23;20030;-70
2023/06/30 10:47:22;;;;;;;3.95;1.10;;;;;;;31.74;24.03;101304.81;6495768;23;20473;-73
2023/06/30 10:49:54;;;;;;;4.75;1.45;;;;;;;32.57;22.99;101303.69;6496082;23;20008;-73
2023/06/30 10:52:31;;;;;;;4.13;1.77;;;;;;;32.68;24.01;101298.53;6495006;23;20004;-73
2023/06/30 10:55:06;;;;;;;3.38;1.35;;;;;;;32.79;23.24;101300.47;6495858;23;20083;-73
2023/06/30 10:57:38;;;;;;;6.68;1.42;;;;;;;31.61;24.10;101288.72;6492565;23;20349;-74
2023/06/30 11:00:11;;;;;;;4.43;1.35;;;;;;;32.41;24.35;101288.03;6492929;23;20322;-74
2023/06/30 11:02:51;;;;;;;2.42;1.00;;;;;;;31.96;25.45;101281.91;6482218;23;20012;-74
2023/06/30 11:05:27;;;;;;;3.50;1.45;;;;;;;32.52;24.13;101289.16;6495750;22;20034;-75
2023/06/30 11:08:01;;;;;;;2.80;1.13;;;;;;;32.22;24.21;101293.50;6496704;22;20004;-76
2023/06/30 11:10:32;;;;;;;2.70;1.10;;;;;;;32.10;23.32;101288.81;6495519;23;20333;-75
2023/06/30 11:13:08;;;;;;;5.40;1.60;;;;;;;32.26;23.33;101280.31;6493906;23;20008;-75
2023/06/30 11:15:47;;;;;;;4.03;1.42;;;;;;;32.14;24.67;101285.66;6519145;22;20464;-73
2023/06/30 11:18:19;;;;;;;3.80;1.38;;;;;;;32.01;23.80;101279.38;6495873;22;20035;-74
2023/06/30 11:21:04;;;;;;;4.90;1.80;;;;;;;31.65;25.33;101275.56;6496463;22;20000;-75
2023/06/30 11:23:40;;;;;;;3.60;1.42;;;;;;;31.05;24.98;101270.44;6495465;22;20490;-75
2023/06/30 11:26:13;;;;;;;8.63;1.80;;;;;;;30.88;25.59;101267.41;6495959;22;20050;-75
2023/06/30 11:28:48;;;;;;;;;;;;;;;32.64;24.66;101275.66;6469646;23;20005;-75
2023/06/30 11:31:20;;;;;;;5.88;2.03;;;;;;;31.45;25.15;101272.00;6493751;22;19919;-77
2023/06/30 11:33:53;;;;;;;4.40;1.67;;;;;;;31.80;25.67;101273.31;6494916;23;20004;-78
2023/06/30 11:36:30;;;;;;;4.68;1.83;;;;;;;31.94;24.77;101276.66;6495942;22;20031;-78
2023/06/30 11:39:01;;;;;;;5.05;1.98;;;;;;;31.56;24.69;101269.59;6496234;22;20007;-78
2023/06/30 11:41:33;;;;;;;8.68;1.80;;;;;;;31.02;26.04;101262.72;6495283;22;20000;-78
2023/06/30 11:44:05;;;;;;;6.30;2.22;;;;;;;31.68;25.55;101256.16;6496676;22;19996;-77
2023/06/30 11:46:37;;;;;;;6.75;1.60;;;;;;;31.45;26.66;101260.34;6496092;22;20079;-78